sensor_id;sensor_type;location;lat;lon;timestamp;pressure;altitude;pressure_sealevel;temperature;humidity
50103;BME280;35993;52.604;10.078;2022-12-07T00:01:15;100976.28;;;2.03;100.00
50103;BME280;35993;52.604;10.078;2022-12-07T00:03:42;100968.94;;;2.05;100.00
50103;BME280;35993;52.604;10.078;2022-12-07T00:06:10;100970.31;;;2.09;100.00
50103;BME280;35993;52.604;10.078;2022-12-07T00:08:36;100968.28;;;2.11;100.00
50103;BME280;35993;52.604;10.078;2022-12-07T00:13:32;100966.00;;;2.16;100.00
50103;BME280;35993;52.604;10.078;2022-12-07T00:16:18;100955.16;;;2.18;100.00
50103;BME280;35993;52.604;10.078;2022-12-07T00:18:44;100958.66;;;2.18;100.00
50103;BME280;35993;52.604;10.078;2022-12-07T00:21:13;100947.66;;;2.21;100.00
50103;BME280;35993;52.604;10.078;2022-12-07T00:23:40;100941.97;;;2.24;100.00
50103;BME280;35993;52.604;10.078;2022-12-07T00:26:11;100940.81;;;2.27;100.00
50103;BME280;35993;52.604;10.078;2022-12-07T00:28:37;100939.47;;;2.31;100.00
50103;BME280;35993;52.604;10.078;2022-12-07T00:31:08;100934.66;;;2.35;100.00
50103;BME280;35993;52.604;10.078;2022-12-07T00:33:35;100927.97;;;2.39;100.00
50103;BME280;35993;52.604;10.078;2022-12-07T00:36:01;100928.84;;;2.39;100.00
50103;BME280;35993;52.604;10.078;2022-12-07T00:38:32;100932.19;;;2.41;100.00
50103;BME280;35993;52.604;10.078;2022-12-07T00:41:04;100927.69;;;2.42;100.00
50103;BME280;35993;52.604;10.078;2022-12-07T00:43:30;100925.00;;;2.42;100.00
50103;BME280;35993;52.604;10.078;2022-12-07T00:45:56;100921.28;;;2.43;100.00
50103;BME280;35993;52.604;10.078;2022-12-07T00:48:22;100917.47;;;2.45;100.00
50103;BME280;35993;52.604;10.078;2022-12-07T00:50:49;100913.63;;;2.48;100.00
50103;BME280;35993;52.604;10.078;2022-12-07T00:53:15;100910.94;;;2.48;100.00
50103;BME280;35993;52.604;10.078;2022-12-07T00:55:41;100909.66;;;2.52;100.00
50103;BME280;35993;52.604;10.078;2022-12-07T00:58:07;100908.66;;;2.53;100.00
50103;BME280;35993;52.604;10.078;2022-12-07T01:00:35;100913.84;;;2.55;100.00
50103;BME280;35993;52.604;10.078;2022-12-07T01:03:01;100906.63;;;2.55;100.00
50103;BME280;35993;52.604;10.078;2022-12-07T01:05:27;100911.00;;;2.56;100.00
50103;BME280;35993;52.604;10.078;2022-12-07T01:07:53;100913.34;;;2.59;100.00
50103;BME280;35993;52.604;10.078;2022-12-07T01:10:18;100897.78;;;2.63;100.00
50103;BME280;35993;52.604;10.078;2022-12-07T01:12:44;100902.16;;;2.64;100.00
50103;BME280;35993;52.604;10.078;2022-12-07T01:15:10;100896.97;;;2.62;100.00
50103;BME280;35993;52.604;10.078;2022-12-07T01:17:36;100901.16;;;2.65;100.00
50103;BME280;35993;52.604;10.078;2022-12-07T01:20:03;100896.16;;;2.70;100.00
50103;BME280;35993;52.604;10.078;2022-12-07T01:22:29;100893.47;;;2.70;100.00
50103;BME280;35993;52.604;10.078;2022-12-07T01:24:54;100897.50;;;2.74;100.00
50103;BME280;35993;52.604;10.078;2022-12-07T01:27:20;100885.63;;;2.77;100.00
50103;BME280;35993;52.604;10.078;2022-12-07T01:29:46;100899.88;;;2.77;100.00
50103;BME280;35993;52.604;10.078;2022-12-07T01:32:11;100896.19;;;2.78;100.00
50103;BME280;35993;52.604;10.078;2022-12-07T01:34:37;100882.78;;;2.78;100.00
50103;BME280;35993;52.604;10.078;2022-12-07T01:37:03;100892.50;;;2.79;100.00
50103;BME280;35993;52.604;10.078;2022-12-07T01:39:28;100891.50;;;2.81;100.00
50103;BME280;35993;52.604;10.078;2022-12-07T01:41:55;100884.00;;;2.84;100.00
50103;BME280;35993;52.604;10.078;2022-12-07T01:44:22;100885.50;;;2.87;100.00
50103;BME280;35993;52.604;10.078;2022-12-07T01:46:49;100887.84;;;2.90;100.00
50103;BME280;35993;52.604;10.078;2022-12-07T01:51:58;100880.81;;;2.89;100.00
50103;BME280;35993;52.604;10.078;2022-12-07T01:54:26;100873.28;;;2.92;100.00
50103;BME280;35993;52.604;10.078;2022-12-07T01:56:53;100882.19;;;2.93;100.00
50103;BME280;35993;52.604;10.078;2022-12-07T01:59:21;100870.28;;;2.95;100.00
50103;BME280;35993;52.604;10.078;2022-12-07T02:01:50;100881.03;;;2.95;100.00
50103;BME280;35993;52.604;10.078;2022-12-07T02:04:16;100871.94;;;2.97;100.00
50103;BME280;35993;52.604;10.078;2022-12-07T02:06:42;100879.16;;;2.96;100.00
50103;BME280;35993;52.604;10.078;2022-12-07T02:09:09;100876.47;;;2.96;100.00
50103;BME280;35993;52.604;10.078;2022-12-07T02:11:34;100869.59;;;3.02;100.00
50103;BME280;35993;52.604;10.078;2022-12-07T02:14:00;100872.28;;;3.02;100.00
50103;BME280;35993;52.604;10.078;2022-12-07T02:22:18;100865.94;;;3.03;100.00
50103;BME280;35993;52.604;10.078;2022-12-07T02:28:30;100856.88;;;3.04;100.00
50103;BME280;35993;52.604;10.078;2022-12-07T02:31:08;100857.22;;;3.01;100.00
50103;BME280;35993;52.604;10.078;2022-12-07T02:33:39;100850.84;;;3.02;100.00
50103;BME280;35993;52.604;10.078;2022-12-07T02:36:11;100842.44;;;2.97;100.00
50103;BME280;35993;52.604;10.078;2022-12-07T02:39:00;100843.31;;;2.97;100.00
50103;BME280;35993;52.604;10.078;2022-12-07T02:41:31;100842.44;;;2.97;100.00
50103;BME280;35993;52.604;10.078;2022-12-07T02:44:05;100845.81;;;2.90;100.00
50103;BME280;35993;52.604;10.078;2022-12-07T02:46:43;100847.63;;;2.90;100.00
50103;BME280;35993;52.604;10.078;2022-12-07T02:49:10;100842.09;;;2.91;100.00
50103;BME280;35993;52.604;10.078;2022-12-07T02:51:41;100842.25;;;2.90;100.00
50103;BME280;35993;52.604;10.078;2022-12-07T02:54:18;100836.56;;;2.85;100.00
50103;BME280;35993;52.604;10.078;2022-12-07T02:56:49;100836.56;;;2.85;100.00
50103;BME280;35993;52.604;10.078;2022-12-07T03:16:25;100813.69;;;2.56;100.00
50103;BME280;35993;52.604;10.078;2022-12-07T03:18:55;100818.53;;;2.52;100.00
50103;BME280;35993;52.604;10.078;2022-12-07T03:21:44;100820.53;;;2.50;100.00
50103;BME280;35993;52.604;10.078;2022-12-07T03:24:23;100815.00;;;2.52;100.00
50103;BME280;35993;52.604;10.078;2022-12-07T03:27:01;100806.59;;;2.46;100.00
50103;BME280;35993;52.604;10.078;2022-12-07T03:29:34;100811.44;;;2.43;100.00
50103;BME280;35993;52.604;10.078;2022-12-07T03:32:14;100811.97;;;2.46;100.00
50103;BME280;35993;52.604;10.078;2022-12-07T03:35:05;100815.34;;;2.49;100.00
50103;BME280;35993;52.604;10.078;2022-12-07T03:37:39;100811.66;;;2.50;100.00
50103;BME280;35993;52.604;10.078;2022-12-07T03:40:10;100816.84;;;2.51;100.00
50103;BME280;35993;52.604;10.078;2022-12-07T03:42:38;100812.47;;;2.50;100.00
50103;BME280;35993;52.604;10.078;2022-12-07T03:45:05;100810.97;;;2.48;100.00
50103;BME280;35993;52.604;10.078;2022-12-07T03:53:37;100809.91;;;2.40;100.00
50103;BME280;35993;52.604;10.078;2022-12-07T03:56:06;100827.31;;;2.36;100.00
50103;BME280;35993;52.604;10.078;2022-12-07T03:58:34;100829.84;;;2.38;100.00
50103;BME280;35993;52.604;10.078;2022-12-07T04:00:59;100833.38;;;2.38;100.00
50103;BME280;35993;52.604;10.078;2022-12-07T04:03:32;100831.00;;;2.35;100.00
50103;BME280;35993;52.604;10.078;2022-12-07T04:05:58;100832.69;;;2.36;100.00
50103;BME280;35993;52.604;10.078;2022-12-07T04:08:24;100828.00;;;2.38;100.00
50103;BME280;35993;52.604;10.078;2022-12-07T04:10:50;100822.31;;;2.33;100.00
50103;BME280;35993;52.604;10.078;2022-12-07T04:13:16;100821.78;;;2.29;100.00
50103;BME280;35993;52.604;10.078;2022-12-07T04:15:41;100823.75;;;2.27;100.00
50103;BME280;35993;52.604;10.078;2022-12-07T04:18:07;100833.81;;;2.25;100.00
50103;BME280;35993;52.604;10.078;2022-12-07T04:20:32;100833.47;;;2.28;100.00
50103;BME280;35993;52.604;10.078;2022-12-07T04:22:58;100835.50;;;2.26;100.00
50103;BME280;35993;52.604;10.078;2022-12-07T04:25:24;100836.66;;;2.24;100.00
50103;BME280;35993;52.604;10.078;2022-12-07T04:28:05;100838.47;;;2.23;100.00
50103;BME280;35993;52.604;10.078;2022-12-07T04:30:31;100838.19;;;2.26;100.00
50103;BME280;35993;52.604;10.078;2022-12-07T04:32:56;100834.13;;;2.22;100.00
50103;BME280;35993;52.604;10.078;2022-12-07T04:35:22;100831.78;;;2.19;100.00
50103;BME280;35993;52.604;10.078;2022-12-07T04:37:47;100835.13;;;2.21;100.00
50103;BME280;35993;52.604;10.078;2022-12-07T04:40:13;100829.78;;;2.21;100.00
50103;BME280;35993;52.604;10.078;2022-12-07T04:42:39;100829.38;;;2.16;100.00
50103;BME280;35993;52.604;10.078;2022-12-07T04:45:06;100830.78;;;2.20;100.00
50103;BME280;35993;52.604;10.078;2022-12-07T04:47:32;100824.72;;;2.18;100.00
50103;BME280;35993;52.604;10.078;2022-12-07T04:49:57;100822.91;;;2.19;100.00
50103;BME280;35993;52.604;10.078;2022-12-07T04:52:23;100829.38;;;2.16;100.00
50103;BME280;35993;52.604;10.078;2022-12-07T04:54:49;100822.38;;;2.15;100.00
50103;BME280;35993;52.604;10.078;2022-12-07T04:57:14;100823.38;;;2.14;100.00
50103;BME280;35993;52.604;10.078;2022-12-07T04:59:40;100818.00;;;2.14;100.00
50103;BME280;35993;52.604;10.078;2022-12-07T05:02:05;100825.06;;;2.15;100.00
50103;BME280;35993;52.604;10.078;2022-12-07T05:04:31;100822.56;;;2.22;100.00
50103;BME280;35993;52.604;10.078;2022-12-07T05:07:26;100817.06;;;2.23;100.00
50103;BME280;35993;52.604;10.078;2022-12-07T05:09:51;100823.28;;;2.24;100.00
50103;BME280;35993;52.604;10.078;2022-12-07T05:12:26;100822.09;;;2.26;100.00
50103;BME280;35993;52.604;10.078;2022-12-07T05:14:51;100820.94;;;2.29;100.00
50103;BME280;35993;52.604;10.078;2022-12-07T05:17:17;100822.78;;;2.28;100.00
50103;BME280;35993;52.604;10.078;2022-12-07T05:19:42;100811.88;;;2.30;100.00
50103;BME280;35993;52.604;10.078;2022-12-07T05:22:16;100815.59;;;2.29;100.00
50103;BME280;35993;52.604;10.078;2022-12-07T05:24:42;100814.72;;;2.28;100.00
50103;BME280;35993;52.604;10.078;2022-12-07T05:27:08;100817.41;;;2.28;100.00
50103;BME280;35993;52.604;10.078;2022-12-07T05:29:33;100815.72;;;2.27;100.00
50103;BME280;35993;52.604;10.078;2022-12-07T05:31:59;100815.22;;;2.24;100.00
50103;BME280;35993;52.604;10.078;2022-12-07T05:34:25;100820.25;;;2.27;100.00
50103;BME280;35993;52.604;10.078;2022-12-07T05:36:50;100822.47;;;2.32;100.00
50103;BME280;35993;52.604;10.078;2022-12-07T05:39:16;100829.47;;;2.33;100.00
50103;BME280;35993;52.604;10.078;2022-12-07T05:41:42;100825.63;;;2.35;100.00
50103;BME280;35993;52.604;10.078;2022-12-07T05:44:26;100824.28;;;2.31;100.00
50103;BME280;35993;52.604;10.078;2022-12-07T05:46:52;100824.44;;;2.29;100.00
50103;BME280;35993;52.604;10.078;2022-12-07T05:49:17;100816.59;;;2.28;100.00
50103;BME280;35993;52.604;10.078;2022-12-07T05:51:43;100813.03;;;2.27;100.00
50103;BME280;35993;52.604;10.078;2022-12-07T05:54:18;100811.06;;;2.29;100.00
50103;BME280;35993;52.604;10.078;2022-12-07T05:56:44;100802.84;;;2.31;100.00
50103;BME280;35993;52.604;10.078;2022-12-07T05:59:09;100814.91;;;2.35;100.00
50103;BME280;35993;52.604;10.078;2022-12-07T06:01:52;100814.25;;;2.33;100.00
50103;BME280;35993;52.604;10.078;2022-12-07T06:04:19;100810.88;;;2.31;100.00
50103;BME280;35993;52.604;10.078;2022-12-07T06:06:45;100813.75;;;2.29;100.00
50103;BME280;35993;52.604;10.078;2022-12-07T06:09:10;100814.44;;;2.32;100.00
50103;BME280;35993;52.604;10.078;2022-12-07T06:11:38;100816.31;;;2.39;100.00
50103;BME280;35993;52.604;10.078;2022-12-07T06:14:27;100810.25;;;2.37;100.00
50103;BME280;35993;52.604;10.078;2022-12-07T06:16:53;100815.44;;;2.39;100.00
50103;BME280;35993;52.604;10.078;2022-12-07T06:19:20;100819.66;;;2.41;100.00
50103;BME280;35993;52.604;10.078;2022-12-07T06:21:45;100820.50;;;2.42;100.00
50103;BME280;35993;52.604;10.078;2022-12-07T06:24:12;100817.81;;;2.42;100.00
50103;BME280;35993;52.604;10.078;2022-12-07T06:26:38;100825.84;;;2.42;100.00
50103;BME280;35993;52.604;10.078;2022-12-07T06:29:04;100826.16;;;2.39;100.00
50103;BME280;35993;52.604;10.078;2022-12-07T06:31:30;100825.16;;;2.40;100.00
50103;BME280;35993;52.604;10.078;2022-12-07T06:34:02;100828.66;;;2.32;100.00
50103;BME280;35993;52.604;10.078;2022-12-07T06:36:28;100825.34;;;2.38;100.00
50103;BME280;35993;52.604;10.078;2022-12-07T06:38:54;100835.06;;;2.39;100.00
50103;BME280;35993;52.604;10.078;2022-12-07T06:41:20;100834.03;;;2.40;100.00
50103;BME280;35993;52.604;10.078;2022-12-07T06:43:46;100826.53;;;2.44;100.00
50103;BME280;35993;52.604;10.078;2022-12-07T06:46:13;100835.25;;;2.46;100.00
50103;BME280;35993;52.604;10.078;2022-12-07T06:48:40;100827.69;;;2.41;100.00
50103;BME280;35993;52.604;10.078;2022-12-07T06:51:06;100834.19;;;2.39;100.00
50103;BME280;35993;52.604;10.078;2022-12-07T06:53:31;100838.56;;;2.40;100.00
50103;BME280;35993;52.604;10.078;2022-12-07T06:55:57;100830.53;;;2.40;100.00
50103;BME280;35993;52.604;10.078;2022-12-07T06:58:23;100836.72;;;2.40;100.00
50103;BME280;35993;52.604;10.078;2022-12-07T07:00:49;100836.41;;;2.43;100.00
50103;BME280;35993;52.604;10.078;2022-12-07T07:03:16;100834.72;;;2.42;100.00
50103;BME280;35993;52.604;10.078;2022-12-07T07:05:43;100834.19;;;2.39;100.00
50103;BME280;35993;52.604;10.078;2022-12-07T07:08:09;100843.75;;;2.41;100.00
50103;BME280;35993;52.604;10.078;2022-12-07T07:10:35;100848.81;;;2.44;100.00
50103;BME280;35993;52.604;10.078;2022-12-07T07:13:01;100847.28;;;2.42;100.00
50103;BME280;35993;52.604;10.078;2022-12-07T07:15:27;100849.81;;;2.43;100.00
50103;BME280;35993;52.604;10.078;2022-12-07T07:17:53;100834.38;;;2.37;100.00
50103;BME280;35993;52.604;10.078;2022-12-07T07:20:18;100845.72;;;2.31;100.00
50103;BME280;35993;52.604;10.078;2022-12-07T07:22:59;100843.22;;;2.38;100.00
50103;BME280;35993;52.604;10.078;2022-12-07T07:25:44;100848.09;;;2.34;100.00
50103;BME280;35993;52.604;10.078;2022-12-07T07:28:09;100846.88;;;2.28;100.00
50103;BME280;35993;52.604;10.078;2022-12-07T07:30:35;100848.91;;;2.26;100.00
50103;BME280;35993;52.604;10.078;2022-12-07T07:33:02;100851.56;;;2.26;100.00
50103;BME280;35993;52.604;10.078;2022-12-07T07:35:29;100843.38;;;2.28;100.00
50103;BME280;35993;52.604;10.078;2022-12-07T07:37:57;100842.69;;;2.26;100.00
50103;BME280;35993;52.604;10.078;2022-12-07T07:40:24;100836.78;;;2.22;100.00
50103;BME280;35993;52.604;10.078;2022-12-07T07:42:53;100845.00;;;2.21;100.00
50103;BME280;35993;52.604;10.078;2022-12-07T07:45:21;100844.00;;;2.22;100.00
50103;BME280;35993;52.604;10.078;2022-12-07T07:48:06;100844.84;;;2.22;100.00
50103;BME280;35993;52.604;10.078;2022-12-07T07:50:31;100841.84;;;2.25;100.00
50103;BME280;35993;52.604;10.078;2022-12-07T07:52:57;100849.75;;;2.35;100.00
50103;BME280;35993;52.604;10.078;2022-12-07T07:55:23;100852.97;;;2.39;100.00
50103;BME280;35993;52.604;10.078;2022-12-07T07:57:49;100845.88;;;2.29;100.00
50103;BME280;35993;52.604;10.078;2022-12-07T08:00:23;100853.22;;;2.27;100.00
50103;BME280;35993;52.604;10.078;2022-12-07T08:02:49;100857.72;;;2.19;100.00
50103;BME280;35993;52.604;10.078;2022-12-07T08:05:15;100849.72;;;2.27;100.00
50103;BME280;35993;52.604;10.078;2022-12-07T08:07:40;100852.94;;;2.31;100.00
50103;BME280;35993;52.604;10.078;2022-12-07T08:10:07;100836.78;;;2.22;100.00
50103;BME280;35993;52.604;10.078;2022-12-07T08:12:37;100841.69;;;2.27;100.00
50103;BME280;35993;52.604;10.078;2022-12-07T08:15:03;100839.53;;;2.31;100.00
50103;BME280;35993;52.604;10.078;2022-12-07T08:17:29;100838.31;;;2.25;100.00
50103;BME280;35993;52.604;10.078;2022-12-07T08:19:54;100846.84;;;2.20;100.00
50103;BME280;35993;52.604;10.078;2022-12-07T08:22:22;100847.00;;;2.19;100.00
50103;BME280;35993;52.604;10.078;2022-12-07T08:24:48;100850.34;;;2.21;100.00
50103;BME280;35993;52.604;10.078;2022-12-07T08:27:14;100839.06;;;2.09;100.00
50103;BME280;35993;52.604;10.078;2022-12-07T08:29:39;100847.13;;;2.09;100.00
50103;BME280;35993;52.604;10.078;2022-12-07T08:32:22;100848.31;;;2.15;100.00
50103;BME280;35993;52.604;10.078;2022-12-07T08:35:21;100857.50;;;2.12;100.00
50103;BME280;35993;52.604;10.078;2022-12-07T08:37:46;100856.66;;;2.11;100.00
50103;BME280;35993;52.604;10.078;2022-12-07T08:40:13;100865.38;;;2.13;100.00
50103;BME280;35993;52.604;10.078;2022-12-07T08:42:44;100858.81;;;2.08;100.00
50103;BME280;35993;52.604;10.078;2022-12-07T08:45:36;100860.88;;;2.14;100.00
50103;BME280;35993;52.604;10.078;2022-12-07T08:48:10;100859.03;;;2.15;100.00
50103;BME280;35993;52.604;10.078;2022-12-07T08:50:38;100866.38;;;2.12;100.00
50103;BME280;35993;52.604;10.078;2022-12-07T08:53:09;100870.59;;;2.15;100.00
50103;BME280;35993;52.604;10.078;2022-12-07T08:55:35;100862.06;;;2.20;100.00
50103;BME280;35993;52.604;10.078;2022-12-07T08:58:02;100873.00;;;2.26;100.00
50103;BME280;35993;52.604;10.078;2022-12-07T09:00:28;100867.94;;;2.23;100.00
50103;BME280;35993;52.604;10.078;2022-12-07T09:03:14;100854.75;;;2.30;100.00
50103;BME280;35993;52.604;10.078;2022-12-07T09:05:40;100865.28;;;2.23;100.00
50103;BME280;35993;52.604;10.078;2022-12-07T09:08:06;100865.97;;;2.25;100.00
50103;BME280;35993;52.604;10.078;2022-12-07T09:10:33;100864.31;;;2.33;100.00
50103;BME280;35993;52.604;10.078;2022-12-07T09:12:59;100869.53;;;2.34;100.00
50103;BME280;35993;52.604;10.078;2022-12-07T09:15:29;100868.38;;;2.37;100.00
50103;BME280;35993;52.604;10.078;2022-12-07T09:17:55;100862.84;;;2.38;100.00
50103;BME280;35993;52.604;10.078;2022-12-07T09:20:20;100871.06;;;2.37;100.00
50103;BME280;35993;52.604;10.078;2022-12-07T09:22:46;100866.50;;;2.29;100.00
50103;BME280;35993;52.604;10.078;2022-12-07T09:25:11;100872.06;;;2.44;100.00
50103;BME280;35993;52.604;10.078;2022-12-07T09:27:37;100868.22;;;2.46;100.00
50103;BME280;35993;52.604;10.078;2022-12-07T09:30:04;100868.56;;;2.43;100.00
50103;BME280;35993;52.604;10.078;2022-12-07T09:32:30;100869.75;;;2.49;100.00
50103;BME280;35993;52.604;10.078;2022-12-07T09:34:56;100857.34;;;2.48;100.00
50103;BME280;35993;52.604;10.078;2022-12-07T09:37:22;100858.00;;;2.42;100.00
50103;BME280;35993;52.604;10.078;2022-12-07T09:39:48;100859.72;;;2.51;100.00
50103;BME280;35993;52.604;10.078;2022-12-07T09:44:51;100856.53;;;2.48;100.00
50103;BME280;35993;52.604;10.078;2022-12-07T09:47:17;100852.69;;;2.50;100.00
50103;BME280;35993;52.604;10.078;2022-12-07T09:49:43;100859.09;;;2.57;100.00
50103;BME280;35993;52.604;10.078;2022-12-07T09:54:41;100853.75;;;2.66;100.00
50103;BME280;35993;52.604;10.078;2022-12-07T09:57:11;100858.28;;;2.73;100.00
50103;BME280;35993;52.604;10.078;2022-12-07T09:59:38;100856.00;;;2.87;100.00
50103;BME280;35993;52.604;10.078;2022-12-07T10:02:24;100850.34;;;2.98;100.00
50103;BME280;35993;52.604;10.078;2022-12-07T10:04:52;100850.00;;;2.93;100.00
50103;BME280;35993;52.604;10.078;2022-12-07T10:07:17;100854.69;;;2.99;100.00
50103;BME280;35993;52.604;10.078;2022-12-07T10:09:43;100856.19;;;3.02;100.00
50103;BME280;35993;52.604;10.078;2022-12-07T10:12:58;100845.34;;;3.03;100.00
50103;BME280;35993;52.604;10.078;2022-12-07T10:15:43;100848.19;;;3.10;100.00
50103;BME280;35993;52.604;10.078;2022-12-07T10:18:30;100850.53;;;3.13;100.00
50103;BME280;35993;52.604;10.078;2022-12-07T10:21:17;100848.66;;;3.05;100.00
50103;BME280;35993;52.604;10.078;2022-12-07T10:26:34;100845.13;;;2.97;100.00
50103;BME280;35993;52.604;10.078;2022-12-07T10:29:04;100851.34;;;2.97;100.00
50103;BME280;35993;52.604;10.078;2022-12-07T10:31:40;100845.66;;;3.00;100.00
50103;BME280;35993;52.604;10.078;2022-12-07T10:34:20;100843.94;;;2.91;100.00
50103;BME280;35993;52.604;10.078;2022-12-07T10:36:47;100847.63;;;2.90;100.00
50103;BME280;35993;52.604;10.078;2022-12-07T10:39:23;100840.41;;;2.82;100.00
50103;BME280;35993;52.604;10.078;2022-12-07T10:42:00;100832.72;;;2.87;100.00
50103;BME280;35993;52.604;10.078;2022-12-07T10:44:29;100838.75;;;2.89;100.00
50103;BME280;35993;52.604;10.078;2022-12-07T10:47:14;100838.41;;;2.84;100.00
50103;BME280;35993;52.604;10.078;2022-12-07T10:52:53;100836.69;;;2.75;100.00
50103;BME280;35993;52.604;10.078;2022-12-07T11:01:18;100844.44;;;2.86;100.00
50103;BME280;35993;52.604;10.078;2022-12-07T11:06:48;100823.19;;;2.93;100.00
50103;BME280;35993;52.604;10.078;2022-12-07T11:09:46;100827.38;;;2.95;100.00
50103;BME280;35993;52.604;10.078;2022-12-07T11:14:58;100823.34;;;3.08;100.00
50103;BME280;35993;52.604;10.078;2022-12-07T11:20:49;100816.34;;;3.15;100.00
50103;BME280;35993;52.604;10.078;2022-12-07T11:23:24;100818.03;;;3.16;100.00
50103;BME280;35993;52.604;10.078;2022-12-07T11:26:01;100818.19;;;3.15;100.00
50103;BME280;35993;52.604;10.078;2022-12-07T11:31:34;100807.59;;;3.13;100.00
50103;BME280;35993;52.604;10.078;2022-12-07T11:34:10;100810.63;;;3.10;100.00
50103;BME280;35993;52.604;10.078;2022-12-07T11:36:44;100808.47;;;3.14;100.00
50103;BME280;35993;52.604;10.078;2022-12-07T11:41:56;100805.44;;;3.17;100.00
50103;BME280;35993;52.604;10.078;2022-12-07T11:44:40;100799.56;;;3.13;100.00
50103;BME280;35993;52.604;10.078;2022-12-07T11:47:17;100797.06;;;3.11;100.00
50103;BME280;35993;52.604;10.078;2022-12-07T11:53:00;100793.38;;;3.13;100.00
50103;BME280;35993;52.604;10.078;2022-12-07T11:55:40;100792.53;;;3.20;100.00
50103;BME280;35993;52.604;10.078;2022-12-07T12:01:39;100799.25;;;3.24;100.00
50103;BME280;35993;52.604;10.078;2022-12-07T12:06:37;100801.91;;;3.24;100.00
50103;BME280;35993;52.604;10.078;2022-12-07T12:22:58;100779.63;;;3.24;100.00
50103;BME280;35993;52.604;10.078;2022-12-07T12:25:28;100770.59;;;3.25;100.00
50103;BME280;35993;52.604;10.078;2022-12-07T12:27:58;100769.06;;;3.22;100.00
50103;BME280;35993;52.604;10.078;2022-12-07T12:33:03;100766.38;;;3.31;100.00
50103;BME280;35993;52.604;10.078;2022-12-07T12:35:30;100760.31;;;3.28;100.00
50103;BME280;35993;52.604;10.078;2022-12-07T12:38:24;100759.69;;;3.26;100.00
50103;BME280;35993;52.604;10.078;2022-12-07T12:40:50;100749.63;;;3.20;100.00
50103;BME280;35993;52.604;10.078;2022-12-07T12:43:39;100753.63;;;3.24;100.00
50103;BME280;35993;52.604;10.078;2022-12-07T12:51:55;100745.41;;;3.34;100.00
50103;BME280;35993;52.604;10.078;2022-12-07T12:54:29;100746.25;;;3.35;100.00
50103;BME280;35993;52.604;10.078;2022-12-07T12:57:30;100749.63;;;3.37;100.00
50103;BME280;35993;52.604;10.078;2022-12-07T13:00:01;100746.41;;;3.41;100.00
50103;BME280;35993;52.604;10.078;2022-12-07T13:02:35;100749.28;;;3.48;100.00
50103;BME280;35993;52.604;10.078;2022-12-07T13:15:33;100745.56;;;3.41;100.00
50103;BME280;35993;52.604;10.078;2022-12-07T13:18:00;100744.41;;;3.43;100.00
50103;BME280;35993;52.604;10.078;2022-12-07T13:20:44;100727.97;;;3.38;100.00
50103;BME280;35993;52.604;10.078;2022-12-07T13:23:10;100730.66;;;3.38;100.00
50103;BME280;35993;52.604;10.078;2022-12-07T13:25:38;100731.81;;;3.36;100.00
50103;BME280;35993;52.604;10.078;2022-12-07T13:30:46;100722.44;;;3.32;100.00
50103;BME280;35993;52.604;10.078;2022-12-07T13:33:14;100727.13;;;3.38;100.00
50103;BME280;35993;52.604;10.078;2022-12-07T13:35:41;100726.78;;;3.41;100.00
50103;BME280;35993;52.604;10.078;2022-12-07T13:38:22;100730.81;;;3.45;100.00
50103;BME280;35993;52.604;10.078;2022-12-07T13:44:14;100718.88;;;3.48;100.00
50103;BME280;35993;52.604;10.078;2022-12-07T13:49:50;100729.28;;;3.42;100.00
50103;BME280;35993;52.604;10.078;2022-12-07T13:52:23;100726.09;;;3.39;100.00
50103;BME280;35993;52.604;10.078;2022-12-07T13:55:14;100725.09;;;3.40;100.00
50103;BME280;35993;52.604;10.078;2022-12-07T13:57:41;100725.78;;;3.42;100.00
50103;BME280;35993;52.604;10.078;2022-12-07T14:00:20;100716.38;;;3.46;100.00
50103;BME280;35993;52.604;10.078;2022-12-07T14:03:04;100722.44;;;3.48;100.00
50103;BME280;35993;52.604;10.078;2022-12-07T14:08:31;100719.25;;;3.44;100.00
50103;BME280;35993;52.604;10.078;2022-12-07T14:10:58;100723.28;;;3.40;100.00
50103;BME280;35993;52.604;10.078;2022-12-07T14:13:38;100723.09;;;3.42;100.00
50103;BME280;35993;52.604;10.078;2022-12-07T14:18:45;100719.09;;;3.38;100.00
50103;BME280;35993;52.604;10.078;2022-12-07T14:21:17;100725.97;;;3.32;100.00
50103;BME280;35993;52.604;10.078;2022-12-07T14:23:44;100720.25;;;3.27;100.00
50103;BME280;35993;52.604;10.078;2022-12-07T14:26:16;100726.47;;;3.27;100.00
50103;BME280;35993;52.604;10.078;2022-12-07T14:28:44;100721.75;;;3.30;100.00
50103;BME280;35993;52.604;10.078;2022-12-07T14:31:15;100729.31;;;3.26;100.00
50103;BME280;35993;52.604;10.078;2022-12-07T14:33:41;100723.94;;;3.26;100.00
50103;BME280;35993;52.604;10.078;2022-12-07T14:36:12;100723.59;;;3.21;100.00
50103;BME280;35993;52.604;10.078;2022-12-07T14:38:39;100718.94;;;3.23;100.00
50103;BME280;35993;52.604;10.078;2022-12-07T14:41:17;100719.94;;;3.22;100.00
50103;BME280;35993;52.604;10.078;2022-12-07T14:44:10;100719.09;;;3.13;100.00
50103;BME280;35993;52.604;10.078;2022-12-07T14:46:36;100721.78;;;3.13;100.00
50103;BME280;35993;52.604;10.078;2022-12-07T14:49:08;100745.56;;;3.08;100.00
50103;BME280;35993;52.604;10.078;2022-12-07T14:51:36;100779.38;;;2.68;100.00
50103;BME280;35993;52.604;10.078;2022-12-07T14:54:05;100781.06;;;1.91;100.00
50103;BME280;35993;52.604;10.078;2022-12-07T14:56:32;100774.88;;;1.64;100.00
50103;BME280;35993;52.604;10.078;2022-12-07T14:58:58;100764.38;;;1.45;100.00
50103;BME280;35993;52.604;10.078;2022-12-07T15:01:24;100757.59;;;1.33;100.00